Estación Meteorológica Peña el Pijo (Robertgarden) [ 01/30/23 15:26:01 CET ]

Fecha Hora Presion(HPa) Temp (°C) Humedad % Rocio (°C) Viento ( m/s) Direccion Lluvia 1Hora(mm) Lluvia 24H(mm) LLuvia Total(mm)
2012-Nov-24 01:01:18 1012.300 0.1 90 -1.3         178.19
2012-Nov-24 02:03:22 1011.500 -0.4 90 -1.8         178.19
2012-Nov-24 03:01:17 1011.400 -0.9 91 -2.2         178.19
2012-Nov-24 04:01:13 1011.000 -1.6 91 -2.9         178.19
2012-Nov-24 05:01:18 1010.700 -1.8 91 -3.1         178.19
2012-Nov-24 06:01:12 1010.700 -1.8 92 -2.9         178.19
2012-Nov-24 07:01:12 1010.600 -2.1 92 -3.2         178.19
2012-Nov-24 08:01:13 1010.700 -2.1 92 -3.2         178.19
2012-Nov-24 09:01:13 1011.100 -1.6 92 -2.7         178.19
2012-Nov-24 10:01:16 1011.200 5.3 93 4.2         178.19
2012-Nov-24 11:01:12 1010.900 9.8 73 5.2         178.19
2012-Nov-24 12:01:18 1010.600 16.1 55 7.0         178.19
2012-Nov-24 13:01:13 1010.500 19.3 42 6.0         178.19
2012-Nov-24 14:01:18 1009.900 19.8 38 5.0         178.19
2012-Nov-24 15:01:17 1009.600 19.5 38 4.7         178.19
2012-Nov-24 16:01:17 1009.600 17.8 41 4.3         178.19
2012-Nov-24 17:01:14 1009.700 15.8 48 4.8         178.19
2012-Nov-24 18:01:17 1010.100 12.1 61 4.8         178.19
2012-Nov-24 19:01:13 1010.700 8.8 71 3.8         178.19
2012-Nov-24 20:01:12 1011.000 7.4 75 3.2         178.19
2012-Nov-24 21:01:13 1011.400 7.2 79 3.8         178.19
2012-Nov-24 22:01:17 1011.800 6.7 81 3.7         178.19
2012-Nov-24 23:01:15 1012.000 5.8 83 3.1         178.19

Temperatura Máxima:19°    Temperatura Mínima:-2°
Presión Máxima:1012.300 Hpa    Presión Mínima:1009.600 Hpa


Volver